createdAt,value
2022-12-18T00:00:43.154Z,100.00
2022-12-18T00:05:53.618Z,100.00
2022-12-18T00:11:00.545Z,100.00
2022-12-18T00:16:06.240Z,100.00
2022-12-18T00:21:12.629Z,100.00
2022-12-18T00:26:22.277Z,100.00
2022-12-18T00:31:29.083Z,100.00
2022-12-18T00:36:34.960Z,100.00
2022-12-18T00:41:57.064Z,100.00
2022-12-18T00:47:00.309Z,100.00
2022-12-18T00:52:03.350Z,100.00
2022-12-18T00:57:07.133Z,100.00
2022-12-18T01:02:10.384Z,100.00
2022-12-18T01:07:13.683Z,100.00
2022-12-18T01:12:17.140Z,100.00
2022-12-18T01:17:20.290Z,100.00
2022-12-18T01:22:24.110Z,100.00
2022-12-18T01:27:27.278Z,100.00
2022-12-18T01:32:33.898Z,100.00
2022-12-18T01:37:38.649Z,100.00
2022-12-18T01:42:42.365Z,100.00
2022-12-18T01:47:47.185Z,100.00
2022-12-18T01:52:57.164Z,100.00
2022-12-18T01:58:01.883Z,100.00
2022-12-18T02:03:05.106Z,100.00
2022-12-18T02:08:22.149Z,100.00
2022-12-18T02:13:32.396Z,100.00
2022-12-18T02:18:40.340Z,100.00
2022-12-18T02:24:13.521Z,100.00
2022-12-18T02:29:29.229Z,100.00
2022-12-18T02:34:37.471Z,100.00
2022-12-18T02:39:46.124Z,100.00
2022-12-18T02:44:53.041Z,100.00
2022-12-18T02:50:19.844Z,100.00
2022-12-18T02:56:02.022Z,100.00
2022-12-18T03:01:11.084Z,100.00
2022-12-18T03:06:24.876Z,100.00
2022-12-18T03:11:53.953Z,100.00
2022-12-18T03:17:04.387Z,100.00
2022-12-18T03:22:09.825Z,100.00
2022-12-18T03:27:25.752Z,100.00
2022-12-18T03:32:35.119Z,100.00
2022-12-18T03:37:39.897Z,100.00
2022-12-18T03:42:53.006Z,100.00
2022-12-18T03:48:02.808Z,100.00
2022-12-18T03:53:23.339Z,100.00
2022-12-18T03:58:28.072Z,100.00
2022-12-18T04:03:42.727Z,100.00
2022-12-18T04:08:48.771Z,100.00
2022-12-18T04:13:59.902Z,100.00
2022-12-18T04:19:03.457Z,100.00
2022-12-18T04:24:12.623Z,100.00
2022-12-18T04:29:24.115Z,100.00
2022-12-18T04:34:27.419Z,100.00
2022-12-18T04:39:32.153Z,100.00
2022-12-18T04:44:41.212Z,100.00
2022-12-18T04:49:45.616Z,100.00
2022-12-18T04:54:48.860Z,100.00
2022-12-18T04:59:52.331Z,100.00
2022-12-18T05:04:56.752Z,100.00
2022-12-18T05:10:00.026Z,100.00
2022-12-18T05:15:03.539Z,100.00
2022-12-18T05:20:06.786Z,100.00
2022-12-18T05:25:10.370Z,100.00
2022-12-18T05:30:14.361Z,100.00
2022-12-18T05:35:17.859Z,100.00
2022-12-18T05:40:23.232Z,100.00
2022-12-18T05:45:26.455Z,100.00
2022-12-18T05:50:29.473Z,100.00
2022-12-18T05:55:38.974Z,100.00
2022-12-18T06:00:45.276Z,100.00
2022-12-18T06:05:48.716Z,100.00
2022-12-18T06:10:53.847Z,100.00
2022-12-18T06:15:57.448Z,100.00
2022-12-18T06:21:02.064Z,99.21
2022-12-18T06:26:13.337Z,95.08
2022-12-18T06:31:17.413Z,92.07
2022-12-18T06:36:21.389Z,88.91
2022-12-18T06:41:25.348Z,86.05
2022-12-18T06:46:29.240Z,82.74
2022-12-18T06:51:32.311Z,80.72
2022-12-18T06:56:36.358Z,78.03
2022-12-18T07:01:39.727Z,75.86
2022-12-18T07:06:43.904Z,73.32
2022-12-18T07:11:46.916Z,52.33
2022-12-18T07:16:50.409Z,45.38
2022-12-18T07:21:53.499Z,44.76
2022-12-18T07:26:57.470Z,39.56
2022-12-18T07:32:01.068Z,38.33
2022-12-18T07:37:05.848Z,36.64
2022-12-18T07:42:28.040Z,33.56
2022-12-18T07:47:32.904Z,34.28
2022-12-18T07:52:36.602Z,34.36
2022-12-18T07:58:00.811Z,34.19
2022-12-18T08:03:04.237Z,32.51
2022-12-18T08:08:07.313Z,33.30
2022-12-18T08:13:10.329Z,36.50
2022-12-18T08:18:14.541Z,33.20
2022-12-18T08:23:18.394Z,31.41
2022-12-18T08:28:22.012Z,30.99
2022-12-18T08:33:25.167Z,34.30
2022-12-18T08:38:29.685Z,34.23
2022-12-18T08:43:51.997Z,32.90
2022-12-18T08:48:57.243Z,30.39
2022-12-18T08:54:01.185Z,32.26
2022-12-18T08:59:05.686Z,29.33
2022-12-18T09:04:10.929Z,28.86
2022-12-18T09:09:15.015Z,28.79
2022-12-18T09:14:18.459Z,29.53
2022-12-18T10:10:47.978Z,30.57
2022-12-18T10:15:58.619Z,32.80
2022-12-18T10:21:12.795Z,31.41
2022-12-18T11:29:13.186Z,44.98
2022-12-18T11:34:32.455Z,43.30
2022-12-18T11:39:44.665Z,43.03
2022-12-18T11:45:02.521Z,41.55
2022-12-18T11:50:29.796Z,41.98
2022-12-18T11:55:43.265Z,42.23
2022-12-18T12:01:02.366Z,41.77
2022-12-18T12:06:23.926Z,43.54
2022-12-18T12:11:33.951Z,40.76
2022-12-18T12:16:59.046Z,43.27
2022-12-18T12:22:18.156Z,44.69
2022-12-18T12:27:49.049Z,43.07
2022-12-18T12:33:07.462Z,42.21
2022-12-18T12:38:28.064Z,41.98
2022-12-18T12:43:43.436Z,45.24
2022-12-18T12:49:03.811Z,49.93
2022-12-18T12:54:16.883Z,50.03
2022-12-18T13:01:05.309Z,48.55
2022-12-18T13:06:57.463Z,45.46
2022-12-18T13:12:25.343Z,39.91
2022-12-18T13:17:32.222Z,40.06
2022-12-18T13:22:40.318Z,44.57
2022-12-18T13:27:46.818Z,46.71
2022-12-18T13:54:20.323Z,46.79
2022-12-18T13:59:36.092Z,47.11
2022-12-18T14:04:39.848Z,47.15
2022-12-18T14:09:50.080Z,45.90
2022-12-18T14:14:55.101Z,46.75
2022-12-18T14:19:59.467Z,51.21
2022-12-18T14:25:12.069Z,59.05
2022-12-18T14:30:28.658Z,62.16
2022-12-18T14:35:34.157Z,66.43
2022-12-18T14:40:37.880Z,66.63
2022-12-18T14:45:44.578Z,68.09
2022-12-18T14:50:57.939Z,68.11
2022-12-18T14:56:01.722Z,71.96
2022-12-18T15:01:05.226Z,74.59
2022-12-18T15:06:28.739Z,76.58
2022-12-18T15:11:45.509Z,76.18
2022-12-18T15:16:53.470Z,78.20
2022-12-18T15:22:04.398Z,80.55
2022-12-18T15:27:26.520Z,81.45
2022-12-18T15:32:30.361Z,82.85
2022-12-18T15:37:35.305Z,85.05
2022-12-18T15:42:58.502Z,86.22
2022-12-18T15:48:03.710Z,88.19
2022-12-18T15:53:11.268Z,90.25
2022-12-18T15:58:14.463Z,91.92
2022-12-18T16:03:19.623Z,92.17
2022-12-18T16:08:23.222Z,92.98
2022-12-18T16:13:26.968Z,93.50
2022-12-18T16:18:31.626Z,95.31
2022-12-18T16:23:36.706Z,96.16
2022-12-18T16:28:45.172Z,96.89
2022-12-18T16:34:14.705Z,98.14
2022-12-18T16:39:26.136Z,99.61
2022-12-18T16:44:37.881Z,99.22
2022-12-18T16:49:49.363Z,97.39
2022-12-18T16:54:55.572Z,96.69
2022-12-18T17:00:05.296Z,95.67
2022-12-18T17:05:10.995Z,96.32
2022-12-18T17:10:17.157Z,96.71
2022-12-18T17:15:23.649Z,96.45
2022-12-18T17:20:28.548Z,96.43
2022-12-18T17:25:33.385Z,95.61
2022-12-18T17:30:37.786Z,94.85
2022-12-18T17:35:41.265Z,95.30
2022-12-18T17:40:46.613Z,95.47
2022-12-18T17:45:50.842Z,96.61
2022-12-18T17:50:55.910Z,97.26
2022-12-18T17:56:06.424Z,96.78
2022-12-18T18:01:16.082Z,97.05
2022-12-18T18:06:19.837Z,97.52
2022-12-18T18:11:44.019Z,98.36
2022-12-18T18:16:49.294Z,98.66
2022-12-18T18:21:54.622Z,99.12
2022-12-18T18:27:01.786Z,99.36
2022-12-18T18:32:05.714Z,99.22
2022-12-18T18:37:10.694Z,99.22
2022-12-18T18:42:14.158Z,99.36
2022-12-18T18:47:17.595Z,98.79
2022-12-18T18:52:21.239Z,98.07
2022-12-18T18:57:29.991Z,98.18
2022-12-18T19:02:33.545Z,97.93
2022-12-18T19:07:37.310Z,97.61
2022-12-18T19:12:59.690Z,98.23
2022-12-18T19:18:03.366Z,98.93
2022-12-18T19:23:07.002Z,99.25
2022-12-18T19:28:15.341Z,98.47
2022-12-18T19:38:49.973Z,95.73
2022-12-18T19:43:54.147Z,96.30
2022-12-18T19:49:02.909Z,96.38
2022-12-18T19:54:07.178Z,95.87
2022-12-18T19:59:11.133Z,95.87
2022-12-18T20:04:14.962Z,96.35
2022-12-18T20:09:19.407Z,96.46
2022-12-18T20:14:23.910Z,96.95
2022-12-18T20:19:28.201Z,97.14
2022-12-18T20:24:32.657Z,97.42
2022-12-18T20:29:36.988Z,97.82
2022-12-18T20:34:41.176Z,98.63
2022-12-18T20:39:45.759Z,99.13
2022-12-18T20:44:49.935Z,99.10
2022-12-18T20:49:53.951Z,99.54
2022-12-18T20:54:57.668Z,100.00
2022-12-18T21:00:03.075Z,100.00
2022-12-18T21:05:06.944Z,100.00
2022-12-18T21:10:10.378Z,100.00
2022-12-18T21:15:14.160Z,100.00
2022-12-18T21:20:18.983Z,100.00
2022-12-18T21:25:22.396Z,100.00
2022-12-18T21:30:26.113Z,100.00
2022-12-18T21:35:29.268Z,100.00
2022-12-18T21:40:35.401Z,100.00
2022-12-18T21:45:39.844Z,100.00
2022-12-18T21:50:42.894Z,100.00
2022-12-18T21:55:46.424Z,100.00
2022-12-18T22:00:50.409Z,100.00
2022-12-18T22:06:07.562Z,100.00
2022-12-18T22:11:13.471Z,100.00
2022-12-18T22:16:17.429Z,100.00
2022-12-18T22:21:29.345Z,100.00
2022-12-18T22:26:39.819Z,100.00
2022-12-18T22:31:45.144Z,100.00
2022-12-18T22:36:49.071Z,100.00
2022-12-18T22:41:53.848Z,100.00
2022-12-18T22:47:02.886Z,100.00
2022-12-18T22:52:11.120Z,99.59
2022-12-18T22:57:14.274Z,99.43
2022-12-18T23:02:19.316Z,98.92
2022-12-18T23:07:23.461Z,99.14
2022-12-18T23:12:26.544Z,99.55
2022-12-18T23:17:30.137Z,99.95
2022-12-18T23:22:33.410Z,100.00
2022-12-18T23:27:37.184Z,100.00
2022-12-18T23:32:41.472Z,100.00
2022-12-18T23:38:01.044Z,100.00
2022-12-18T23:43:04.786Z,100.00
2022-12-18T23:48:08.232Z,100.00
2022-12-18T23:53:11.579Z,100.00
2022-12-18T23:58:21.900Z,100.00
